Time;durP1;ratioP1;P1;durP2;ratioP2;P2;SDS_P1;SDS_P2;PMS_P1;PMS_P2;Temp;Humidity;BMP_temperature;BMP_pressure;BME280_temperature;BME280_humidity;BME280_pressure;Samples;Min_cycle;Max_cycle;Signal;HPM_P1;HPM_P2
2023/07/07 00:03:18;;;;;;;16.13;8.65;;;;;;;;;;10450331;28;20045;-81
2023/07/07 00:08:19;;;;;;;20.02;8.70;;;;;;;;;;10449770;28;20060;-81
2023/07/07 00:13:21;;;;;;;16.63;8.77;;;;;;;;;;10450227;28;20052;-81
2023/07/07 00:18:26;;;;;;;15.02;8.63;;;;;;;;;;10449408;28;20025;-81
2023/07/07 00:23:29;;;;;;;15.00;8.40;;;;;;;;;;10449494;28;20040;-81
2023/07/07 00:28:31;;;;;;;14.20;8.20;;;;;;;;;;10449153;28;20040;-81
2023/07/07 00:33:32;;;;;;;15.52;8.52;;;;;;;;;;10450009;28;20397;-81
2023/07/07 00:38:33;;;;;;;14.23;7.07;;;;;;;;;;10448784;28;20037;-81
2023/07/07 00:43:34;;;;;;;13.55;7.68;;;;;;;;;;10448138;28;20476;-80
2023/07/07 00:48:41;;;;;;;14.05;8.60;;;;;;;;;;10446691;28;20086;-81
2023/07/07 00:53:44;;;;;;;17.85;8.55;;;;;;;;;;10447199;28;20032;-81
2023/07/07 00:58:45;;;;;;;17.67;8.63;;;;;;;;;;10446539;28;20388;-81
2023/07/07 01:03:48;;;;;;;16.73;8.43;;;;;;;;;;10447937;28;20040;-80
2023/07/07 01:08:53;;;;;;;15.10;8.52;;;;;;;;;;10447883;28;20060;-81
2023/07/07 01:13:55;;;;;;;14.60;7.82;;;;;;;;;;10447269;28;20044;-80
2023/07/07 01:19:01;;;;;;;12.95;7.70;;;;;;;;;;10439854;28;20033;-81
2023/07/07 01:24:02;;;;;;;14.57;7.25;;;;;;;;;;10447282;28;20061;-81
2023/07/07 01:29:18;;;;;;;14.07;6.38;;;;;;;;;;10447991;28;20071;-81
2023/07/07 01:34:19;;;;;;;12.88;7.97;;;;;;;;;;10445555;28;20028;-80
2023/07/07 01:39:23;;;;;;;13.02;7.28;;;;;;;;;;10446704;28;20041;-80
2023/07/07 01:44:32;;;;;;;11.35;7.40;;;;;;;;;;10445741;28;20037;-81
2023/07/07 01:49:57;;;;;;;10.13;6.72;;;;;;;;;;10447400;28;20052;-79
2023/07/07 01:55:00;;;;;;;11.10;6.60;;;;;;;;;;10440423;28;20037;-79
2023/07/07 02:00:02;;;;;;;13.70;6.68;;;;;;;;;;10446648;28;20033;-79
2023/07/07 02:05:03;;;;;;;11.02;6.30;;;;;;;;;;10453055;28;20040;-79
2023/07/07 02:10:04;;;;;;;13.82;7.25;;;;;;;;;;10455870;28;20064;-79
2023/07/07 02:15:05;;;;;;;14.63;6.90;;;;;;;;;;10454418;28;20029;-79
2023/07/07 02:20:08;;;;;;;14.05;7.55;;;;;;;;;;10454232;28;20037;-79
2023/07/07 02:25:10;;;;;;;13.75;7.15;;;;;;;;;;10454587;28;20025;-81
2023/07/07 02:30:11;;;;;;;13.00;6.47;;;;;;;;;;10453593;28;20112;-81
2023/07/07 02:35:13;;;;;;;11.07;6.38;;;;;;;;;;10452910;28;20041;-80
2023/07/07 02:40:15;;;;;;;11.90;6.38;;;;;;;;;;10454321;28;20391;-80
2023/07/07 02:45:16;;;;;;;8.73;5.25;;;;;;;;;;10452745;28;20036;-79
2023/07/07 02:50:17;;;;;;;8.23;5.25;;;;;;;;;;10454541;28;20107;-80
2023/07/07 02:55:18;;;;;;;10.20;5.72;;;;;;;;;;10451804;28;20039;-80
2023/07/07 03:00:19;;;;;;;11.20;5.57;;;;;;;;;;10451657;28;20484;-79
2023/07/07 03:05:20;;;;;;;8.48;4.80;;;;;;;;;;10448440;28;20041;-79
2023/07/07 03:10:21;;;;;;;11.02;6.82;;;;;;;;;;10449797;28;20049;-79
2023/07/07 03:15:22;;;;;;;10.68;6.97;;;;;;;;;;10447702;28;20043;-81
2023/07/07 03:20:26;;;;;;;15.85;7.30;;;;;;;;;;10448690;28;20051;-79
2023/07/07 03:25:28;;;;;;;16.27;8.00;;;;;;;;;;10449130;28;21489;-79
2023/07/07 03:30:29;;;;;;;12.30;7.00;;;;;;;;;;10448263;28;20032;-80
2023/07/07 03:35:30;;;;;;;14.52;7.57;;;;;;;;;;10448135;28;20068;-79
2023/07/07 03:40:31;;;;;;;17.65;8.40;;;;;;;;;;10448019;28;20029;-79
2023/07/07 03:45:34;;;;;;;14.35;7.65;;;;;;;;;;10446501;28;20043;-79
2023/07/07 03:50:35;;;;;;;13.88;8.20;;;;;;;;;;10447614;28;20029;-79
2023/07/07 03:55:36;;;;;;;15.10;8.93;;;;;;;;;;10445729;28;20028;-79
2023/07/07 04:00:37;;;;;;;13.63;8.32;;;;;;;;;;10446780;28;20033;-79
2023/07/07 04:05:42;;;;;;;13.32;8.35;;;;;;;;;;10447114;28;20126;-79
2023/07/07 04:10:43;;;;;;;15.00;8.53;;;;;;;;;;10447044;28;20074;-79
2023/07/07 04:15:56;;;;;;;15.45;8.57;;;;;;;;;;10443423;28;20035;-79
2023/07/07 04:21:01;;;;;;;15.77;9.05;;;;;;;;;;10445343;28;20041;-80
2023/07/07 04:26:02;;;;;;;17.50;8.82;;;;;;;;;;10445145;28;20503;-79
2023/07/07 04:31:04;;;;;;;18.70;8.80;;;;;;;;;;10445072;28;20036;-79
2023/07/07 04:36:07;;;;;;;16.70;9.00;;;;;;;;;;10445723;28;20100;-81
2023/07/07 04:41:21;;;;;;;17.75;9.40;;;;;;;;;;10444889;28;20053;-82
2023/07/07 04:46:24;;;;;;;14.00;9.10;;;;;;;;;;10445496;28;20032;-81
2023/07/07 04:51:25;;;;;;;16.05;9.85;;;;;;;;;;10441597;28;20043;-81
2023/07/07 04:56:26;;;;;;;17.33;11.10;;;;;;;;;;10445254;28;20040;-81
2023/07/07 05:01:29;;;;;;;17.42;11.07;;;;;;;;;;10444859;28;20041;-81
2023/07/07 05:06:32;;;;;;;18.98;10.65;;;;;;;;;;10445720;28;20516;-81
2023/07/07 05:11:34;;;;;;;15.63;10.25;;;;;;;;;;10444249;28;20041;-81
2023/07/07 05:16:36;;;;;;;17.30;11.63;;;;;;;;;;10442823;28;20056;-81
2023/07/07 05:21:37;;;;;;;16.65;10.10;;;;;;;;;;10443025;28;20040;-81
2023/07/07 05:26:38;;;;;;;16.38;9.98;;;;;;;;;;10443593;28;20113;-80
2023/07/07 05:31:40;;;;;;;17.10;9.98;;;;;;;;;;10443383;28;20021;-81
2023/07/07 05:36:42;;;;;;;20.80;9.60;;;;;;;;;;10442979;28;20064;-81
2023/07/07 05:41:43;;;;;;;15.70;9.60;;;;;;;;;;10441443;28;20044;-80
2023/07/07 05:46:44;;;;;;;14.93;9.05;;;;;;;;;;10442133;28;20028;-81
2023/07/07 05:51:45;;;;;;;13.27;9.07;;;;;;;;;;10443251;28;20024;-82
2023/07/07 05:56:46;;;;;;;12.98;8.05;;;;;;;;;;10442988;28;20031;-80
2023/07/07 06:01:47;;;;;;;11.80;8.02;;;;;;;;;;10443155;28;20459;-81
2023/07/07 06:06:48;;;;;;;11.13;7.03;;;;;;;;;;10442852;28;20056;-81
2023/07/07 06:11:49;;;;;;;10.85;6.90;;;;;;;;;;10438579;28;20076;-86
2023/07/07 06:16:50;;;;;;;9.88;6.00;;;;;;;;;;10441063;28;20033;-86
2023/07/07 06:21:51;;;;;;;9.27;4.65;;;;;;;;;;10442538;28;20062;-86
2023/07/07 06:26:52;;;;;;;10.13;4.30;;;;;;;;;;10443620;28;20454;-86
2023/07/07 06:31:53;;;;;;;7.55;4.65;;;;;;;;;;10443236;28;20043;-85
2023/07/07 06:36:54;;;;;;;6.32;4.18;;;;;;;;;;10440460;28;20024;-87
2023/07/07 06:41:56;;;;;;;6.60;4.38;;;;;;;;;;10440849;28;20049;-84
2023/07/07 06:46:57;;;;;;;8.02;4.70;;;;;;;;;;10443195;28;20029;-88
2023/07/07 06:51:58;;;;;;;6.57;4.30;;;;;;;;;;10450089;28;20037;-85
2023/07/07 06:56:59;;;;;;;9.90;4.30;;;;;;;;;;10449211;28;20029;-86
2023/07/07 07:02:00;;;;;;;5.95;4.07;;;;;;;;;;10448926;28;20140;-85
2023/07/07 07:07:02;;;;;;;5.60;3.70;;;;;;;;;;10448129;28;20562;-85
2023/07/07 07:12:03;;;;;;;8.23;3.40;;;;;;;;;;10449662;28;20690;-86
2023/07/07 07:17:04;;;;;;;5.15;2.83;;;;;;;;;;10449877;28;20068;-84
2023/07/07 07:22:05;;;;;;;5.47;2.78;;;;;;;;;;10460544;28;20550;-85
2023/07/07 07:27:06;;;;;;;5.32;3.42;;;;;;;;;;10448395;28;20032;-85
2023/07/07 07:32:07;;;;;;;5.35;3.20;;;;;;;;;;10446799;28;20019;-85
2023/07/07 07:37:09;;;;;;;5.15;3.22;;;;;;;;;;10448936;28;20450;-84
2023/07/07 07:42:10;;;;;;;5.72;2.88;;;;;;;;;;10438333;28;20136;-87
2023/07/07 07:47:11;;;;;;;6.35;3.42;;;;;;;;;;10441224;28;20629;-87
2023/07/07 07:52:12;;;;;;;3.47;2.50;;;;;;;;;;10445644;28;20079;-86
2023/07/07 07:57:14;;;;;;;3.65;2.67;;;;;;;;;;10444694;28;20579;-87
2023/07/07 08:02:15;;;;;;;8.90;2.90;;;;;;;;;;10442324;28;20236;-86
2023/07/07 08:07:16;;;;;;;3.65;2.60;;;;;;;;;;10446762;28;20119;-84
2023/07/07 08:12:17;;;;;;;3.95;2.92;;;;;;;;;;10446852;28;20440;-84
2023/07/07 08:17:18;;;;;;;2.65;2.33;;;;;;;;;;10446335;28;20443;-84
2023/07/07 08:22:21;;;;;;;4.25;2.45;;;;;;;;;;10443934;28;20044;-84
2023/07/07 08:27:23;;;;;;;2.45;2.15;;;;;;;;;;10442599;28;20025;-84
2023/07/07 08:32:24;;;;;;;3.25;2.17;;;;;;;;;;10439300;28;20025;-87
2023/07/07 08:37:26;;;;;;;3.22;2.20;;;;;;;;;;10442001;28;20021;-86
2023/07/07 08:42:32;;;;;;;4.00;2.05;;;;;;;;;;10456303;28;20036;-87
2023/07/07 08:47:36;;;;;;;2.92;2.17;;;;;;;;;;10456480;28;20060;-84
2023/07/07 08:52:57;;;;;;;2.87;1.90;;;;;;;;;;10440554;28;20044;-85
2023/07/07 08:58:12;;;;;;;4.72;2.53;;;;;;;;;;10440362;28;20507;-85
2023/07/07 09:03:13;;;;;;;;;;;;;;;;;;10441224;28;20512;-85
2023/07/07 09:08:19;;;;;;;3.40;2.38;;;;;;;;;;10439344;28;19928;-85
2023/07/07 09:13:28;;;;;;;5.25;2.30;;;;;;;;;;10453092;28;20263;-85
2023/07/07 09:18:34;;;;;;;4.53;2.28;;;;;;;;;;10442200;28;20052;-86
2023/07/07 09:23:38;;;;;;;4.32;2.22;;;;;;;;;;10445843;28;20499;-84
2023/07/07 09:28:43;;;;;;;4.97;2.30;;;;;;;;;;10431590;28;20025;-86
2023/07/07 09:33:44;;;;;;;7.03;2.85;;;;;;;;;;10432125;28;20052;-84
2023/07/07 09:38:52;;;;;;;3.13;2.22;;;;;;;;;;10443691;28;20115;-86
2023/07/07 09:44:10;;;;;;;4.28;2.03;;;;;;;;;;10443217;28;20041;-85
2023/07/07 09:49:17;;;;;;;3.55;2.08;;;;;;;;;;10443727;28;20028;-85
2023/07/07 09:54:20;;;;;;;3.58;1.83;;;;;;;;;;10444608;28;20029;-86
2023/07/07 09:59:24;;;;;;;3.30;2.28;;;;;;;;;;10444171;28;20090;-86
2023/07/07 10:04:28;;;;;;;1.97;1.67;;;;;;;;;;10443102;28;20373;-85
2023/07/07 10:09:31;;;;;;;6.13;2.10;;;;;;;;;;10443326;28;20778;-84
2023/07/07 10:14:32;;;;;;;4.40;2.08;;;;;;;;;;10441509;28;20090;-85
2023/07/07 10:19:34;;;;;;;3.92;1.80;;;;;;;;;;10444580;28;20690;-84
2023/07/07 10:24:36;;;;;;;3.45;1.88;;;;;;;;;;10445135;28;20040;-86
2023/07/07 10:29:39;;;;;;;3.45;2.13;;;;;;;;;;10432261;28;20850;-86
2023/07/07 10:34:43;;;;;;;2.60;1.85;;;;;;;;;;10450294;28;20056;-85
2023/07/07 10:39:48;;;;;;;3.90;2.10;;;;;;;;;;10465710;28;20502;-87
2023/07/07 10:44:53;;;;;;;5.38;2.30;;;;;;;;;;10449502;28;20036;-87
2023/07/07 10:49:56;;;;;;;5.50;2.22;;;;;;;;;;10440692;28;20037;-87
2023/07/07 10:55:00;;;;;;;3.45;1.80;;;;;;;;;;10449554;28;20071;-86
2023/07/07 11:00:11;;;;;;;2.33;1.67;;;;;;;;;;10465567;28;20033;-86
2023/07/07 11:05:12;;;;;;;5.07;2.03;;;;;;;;;;10447787;28;20041;-85
2023/07/07 11:10:26;;;;;;;2.72;2.30;;;;;;;;;;10450248;28;20053;-85
2023/07/07 11:15:35;;;;;;;2.20;1.60;;;;;;;;;;10449763;28;20100;-87
2023/07/07 11:20:42;;;;;;;3.75;2.33;;;;;;;;;;10450166;28;20347;-85
2023/07/07 11:25:50;;;;;;;4.80;2.10;;;;;;;;;;10447795;28;20082;-86
2023/07/07 11:30:58;;;;;;;4.10;1.75;;;;;;;;;;10446483;28;20037;-85
2023/07/07 11:36:08;;;;;;;2.65;2.17;;;;;;;;;;10448501;28;20021;-86
2023/07/07 11:41:09;;;;;;;3.17;1.75;;;;;;;;;;10446857;28;20039;-88
2023/07/07 11:46:25;;;;;;;3.28;1.88;;;;;;;;;;10448265;28;20423;-85
2023/07/07 11:51:35;;;;;;;3.65;1.83;;;;;;;;;;10449003;28;20094;-86
2023/07/07 11:56:42;;;;;;;3.50;2.10;;;;;;;;;;10444718;28;20029;-85
2023/07/07 12:01:47;;;;;;;3.08;1.60;;;;;;;;;;10445303;28;20029;-86
2023/07/07 12:07:00;;;;;;;6.22;2.20;;;;;;;;;;10458153;28;20055;-85
2023/07/07 12:12:08;;;;;;;4.15;2.08;;;;;;;;;;10446378;28;20147;-87
2023/07/07 12:17:15;;;;;;;2.33;1.65;;;;;;;;;;10445822;28;20052;-87
2023/07/07 12:22:18;;;;;;;3.28;1.95;;;;;;;;;;10448412;28;20044;-87
2023/07/07 12:27:24;;;;;;;4.43;2.30;;;;;;;;;;10460383;28;20032;-86
2023/07/07 12:32:25;;;;;;;3.67;2.08;;;;;;;;;;10443617;28;20411;-87
2023/07/07 12:37:26;;;;;;;3.90;2.42;;;;;;;;;;10442657;28;20567;-85
2023/07/07 12:42:28;;;;;;;2.60;1.65;;;;;;;;;;10446493;28;20041;-85
2023/07/07 12:47:31;;;;;;;3.63;1.85;;;;;;;;;;10444097;28;20033;-87
2023/07/07 12:52:40;;;;;;;3.42;2.05;;;;;;;;;;10445956;28;20047;-85
2023/07/07 12:57:56;;;;;;;2.42;1.88;;;;;;;;;;10445032;28;20029;-85
2023/07/07 13:03:13;;;;;;;5.28;1.83;;;;;;;;;;10440644;28;20493;-86
2023/07/07 13:08:35;;;;;;;1.60;1.50;;;;;;;;;;10443874;28;20049;-87
2023/07/07 13:13:37;;;;;;;4.28;1.85;;;;;;;;;;10441646;28;20479;-86
2023/07/07 13:18:38;;;;;;;2.38;1.58;;;;;;;;;;10443918;28;20075;-85
2023/07/07 13:23:41;;;;;;;3.08;2.40;;;;;;;;;;10443768;28;20054;-86
2023/07/07 13:28:42;;;;;;;2.72;2.05;;;;;;;;;;10443871;28;20260;-85
2023/07/07 13:33:43;;;;;;;3.05;1.83;;;;;;;;;;10442453;28;20032;-85
2023/07/07 13:38:47;;;;;;;1.85;1.73;;;;;;;;;;10443822;28;20112;-86
2023/07/07 13:43:49;;;;;;;2.85;2.13;;;;;;;;;;10442255;28;20483;-86
2023/07/07 13:48:55;;;;;;;4.50;1.92;;;;;;;;;;10441602;28;20052;-86
2023/07/07 13:53:56;;;;;;;3.40;2.08;;;;;;;;;;10433661;28;20033;-86
2023/07/07 13:58:58;;;;;;;2.97;1.80;;;;;;;;;;10442253;28;20121;-86
2023/07/07 14:04:00;;;;;;;2.70;1.83;;;;;;;;;;10440909;28;20044;-86
2023/07/07 14:09:01;;;;;;;2.17;1.95;;;;;;;;;;10441462;28;20144;-85
2023/07/07 14:14:02;;;;;;;2.67;1.65;;;;;;;;;;10448205;28;20040;-85
2023/07/07 14:19:07;;;;;;;3.33;2.03;;;;;;;;;;10442559;28;20025;-86
2023/07/07 14:24:18;;;;;;;2.33;2.00;;;;;;;;;;10446193;28;20036;-88
2023/07/07 14:29:32;;;;;;;3.97;2.15;;;;;;;;;;10453155;28;20025;-85
2023/07/07 14:34:49;;;;;;;4.43;1.90;;;;;;;;;;10442889;28;20050;-84
2023/07/07 14:39:50;;;;;;;2.28;1.75;;;;;;;;;;10442517;28;20448;-85
2023/07/07 14:44:53;;;;;;;4.05;2.15;;;;;;;;;;10439927;28;20098;-85
2023/07/07 14:49:54;;;;;;;7.72;2.67;;;;;;;;;;10441789;28;20095;-86
2023/07/07 14:54:55;;;;;;;3.40;2.13;;;;;;;;;;10439763;28;20043;-86
2023/07/07 14:59:56;;;;;;;3.50;1.80;;;;;;;;;;10441716;28;20029;-86
2023/07/07 15:05:16;;;;;;;4.32;2.33;;;;;;;;;;10440323;28;20182;-87
2023/07/07 15:10:18;;;;;;;3.00;2.17;;;;;;;;;;10436806;28;20056;-86
2023/07/07 15:15:19;;;;;;;1.73;1.60;;;;;;;;;;10450031;28;20086;-86
2023/07/07 15:20:21;;;;;;;3.03;2.10;;;;;;;;;;10449546;28;20109;-86
2023/07/07 15:25:22;;;;;;;3.72;2.00;;;;;;;;;;10443498;28;20036;-86
2023/07/07 15:30:24;;;;;;;2.05;1.65;;;;;;;;;;10449077;28;20096;-86
2023/07/07 15:35:25;;;;;;;2.00;1.80;;;;;;;;;;10446028;28;20031;-86
2023/07/07 15:40:26;;;;;;;2.40;2.20;;;;;;;;;;10463499;28;20482;-87
2023/07/07 15:45:27;;;;;;;2.35;1.83;;;;;;;;;;10448087;28;20101;-87
2023/07/07 15:50:28;;;;;;;3.17;1.80;;;;;;;;;;10462650;28;20028;-86
2023/07/07 15:55:29;;;;;;;2.42;1.70;;;;;;;;;;10446430;28;20037;-87
2023/07/07 16:00:34;;;;;;;4.22;2.13;;;;;;;;;;10447791;28;20040;-87
2023/07/07 16:05:35;;;;;;;6.68;2.20;;;;;;;;;;10446352;28;20067;-86
2023/07/07 16:10:36;;;;;;;3.28;2.08;;;;;;;;;;10445744;28;20041;-86
2023/07/07 16:15:38;;;;;;;3.05;1.95;;;;;;;;;;10447735;28;20100;-86
2023/07/07 16:20:39;;;;;;;3.15;2.08;;;;;;;;;;10442640;28;20576;-87
2023/07/07 16:25:40;;;;;;;5.18;2.10;;;;;;;;;;10445896;28;20760;-86
2023/07/07 16:30:42;;;;;;;2.25;1.80;;;;;;;;;;10462493;28;20631;-86
2023/07/07 16:35:43;;;;;;;3.25;2.42;;;;;;;;;;10444715;28;20029;-88
2023/07/07 16:40:45;;;;;;;6.22;2.75;;;;;;;;;;10446435;28;20040;-85
2023/07/07 16:45:47;;;;;;;4.43;2.03;;;;;;;;;;10447361;28;20027;-88
2023/07/07 16:50:48;;;;;;;3.20;1.90;;;;;;;;;;10444251;28;20078;-86
2023/07/07 16:55:49;;;;;;;4.55;2.47;;;;;;;;;;10459304;28;20033;-87
2023/07/07 17:00:50;;;;;;;2.42;2.17;;;;;;;;;;10443505;28;20519;-87
2023/07/07 17:05:51;;;;;;;2.60;1.88;;;;;;;;;;10443617;28;20033;-85
2023/07/07 17:10:52;;;;;;;4.15;2.28;;;;;;;;;;10460254;28;20059;-86
2023/07/07 17:15:53;;;;;;;2.67;2.03;;;;;;;;;;10445144;28;20056;-88
2023/07/07 17:20:54;;;;;;;3.60;2.17;;;;;;;;;;10444507;28;20576;-86
2023/07/07 17:25:55;;;;;;;2.40;2.20;;;;;;;;;;10443313;28;20033;-87
2023/07/07 17:30:56;;;;;;;2.65;2.22;;;;;;;;;;10439069;28;20033;-89
2023/07/07 17:35:57;;;;;;;2.40;2.10;;;;;;;;;;10442732;28;20358;-86
2023/07/07 17:40:58;;;;;;;4.18;2.85;;;;;;;;;;10440927;28;20044;-87
2023/07/07 17:45:59;;;;;;;3.83;2.30;;;;;;;;;;10440612;28;20036;-87
2023/07/07 17:51:00;;;;;;;6.47;2.40;;;;;;;;;;10440080;28;20033;-86
2023/07/07 17:56:01;;;;;;;2.38;2.15;;;;;;;;;;10442760;28;20033;-87
2023/07/07 18:01:02;;;;;;;4.35;2.20;;;;;;;;;;10441404;28;20400;-85
2023/07/07 18:06:09;;;;;;;3.25;2.30;;;;;;;;;;10439442;28;20021;-88
2023/07/07 18:11:12;;;;;;;6.30;2.63;;;;;;;;;;10432746;28;20065;-86
2023/07/07 18:16:30;;;;;;;4.25;2.50;;;;;;;;;;10441404;28;20202;-86
2023/07/07 18:21:31;;;;;;;5.43;2.90;;;;;;;;;;10435686;28;20080;-86
2023/07/07 18:26:33;;;;;;;4.32;2.85;;;;;;;;;;10441607;28;20116;-85
2023/07/07 18:31:36;;;;;;;4.63;2.92;;;;;;;;;;10439314;28;20029;-88
2023/07/07 18:36:38;;;;;;;5.22;3.00;;;;;;;;;;10440599;28;20044;-88
2023/07/07 18:41:39;;;;;;;5.13;2.60;;;;;;;;;;10437010;28;20504;-88
2023/07/07 18:46:42;;;;;;;5.72;2.78;;;;;;;;;;10452428;28;20032;-87
2023/07/07 18:51:45;;;;;;;5.57;2.92;;;;;;;;;;10449934;28;20025;-87
2023/07/07 18:56:46;;;;;;;5.35;3.05;;;;;;;;;;10462730;28;20033;-87
2023/07/07 19:01:48;;;;;;;5.53;2.80;;;;;;;;;;10446495;28;20072;-86
2023/07/07 19:06:49;;;;;;;5.53;2.85;;;;;;;;;;10449634;28;20111;-87
2023/07/07 19:11:53;;;;;;;3.05;2.38;;;;;;;;;;10447090;28;20061;-87
2023/07/07 19:16:55;;;;;;;9.23;3.93;;;;;;;;;;10447513;28;20131;-89
2023/07/07 19:21:56;;;;;;;4.95;3.88;;;;;;;;;;10445661;28;20151;-89
2023/07/07 19:26:57;;;;;;;6.70;4.03;;;;;;;;;;10448288;28;20570;-86
2023/07/07 19:31:58;;;;;;;9.10;5.38;;;;;;;;;;10445979;28;20130;-86
2023/07/07 19:36:59;;;;;;;14.63;8.25;;;;;;;;;;10449373;28;20039;-87
2023/07/07 19:42:00;;;;;;;15.95;9.23;;;;;;;;;;10448956;28;20040;-90
2023/07/07 19:47:01;;;;;;;20.92;10.32;;;;;;;;;;10445674;28;20032;-87
2023/07/07 19:52:02;;;;;;;12.35;6.82;;;;;;;;;;10445095;28;20469;-87
2023/07/07 19:57:21;;;;;;;11.52;5.65;;;;;;;;;;10447215;28;20029;-90
2023/07/07 20:02:31;;;;;;;7.55;5.05;;;;;;;;;;10445188;28;20040;-89
2023/07/07 20:07:32;;;;;;;7.13;4.53;;;;;;;;;;10445701;28;20033;-87
2023/07/07 20:12:33;;;;;;;7.40;4.50;;;;;;;;;;10447447;28;20099;-88
2023/07/07 20:17:35;;;;;;;6.78;3.97;;;;;;;;;;10444620;28;20032;-87
2023/07/07 20:22:36;;;;;;;6.50;4.05;;;;;;;;;;10444489;28;20043;-88
2023/07/07 20:27:38;;;;;;;9.70;4.40;;;;;;;;;;10444791;28;20051;-86
2023/07/07 20:32:48;;;;;;;8.93;3.88;;;;;;;;;;10442437;28;20028;-85
2023/07/07 20:37:51;;;;;;;4.65;3.83;;;;;;;;;;10444380;28;20035;-85
2023/07/07 20:42:52;;;;;;;6.28;4.38;;;;;;;;;;10445467;28;20043;-84
2023/07/07 20:47:53;;;;;;;6.90;3.55;;;;;;;;;;10444231;28;20139;-86
2023/07/07 20:52:55;;;;;;;7.43;4.13;;;;;;;;;;10445530;28;20043;-84
2023/07/07 20:57:56;;;;;;;4.00;3.40;;;;;;;;;;10445418;28;20035;-85
2023/07/07 21:02:58;;;;;;;5.38;3.88;;;;;;;;;;10444397;28;20040;-84
2023/07/07 21:07:59;;;;;;;5.97;4.30;;;;;;;;;;10441815;28;20053;-85
2023/07/07 21:13:03;;;;;;;6.70;4.07;;;;;;;;;;10435116;28;20036;-86
2023/07/07 21:18:13;;;;;;;5.15;3.70;;;;;;;;;;10431729;28;20114;-87
2023/07/07 21:23:15;;;;;;;5.75;3.88;;;;;;;;;;10442625;28;20399;-85
2023/07/07 21:28:17;;;;;;;5.10;4.25;;;;;;;;;;10445437;28;20029;-86
2023/07/07 21:33:18;;;;;;;5.15;3.50;;;;;;;;;;10442365;28;20473;-86
2023/07/07 21:38:19;;;;;;;5.13;3.80;;;;;;;;;;10443558;28;20033;-86
2023/07/07 21:43:21;;;;;;;7.68;4.53;;;;;;;;;;10444324;28;20044;-85
2023/07/07 21:48:22;;;;;;;5.30;3.75;;;;;;;;;;10442694;28;20126;-86
2023/07/07 21:53:23;;;;;;;6.30;4.70;;;;;;;;;;10444753;28;20029;-85
2023/07/07 21:58:25;;;;;;;7.20;4.68;;;;;;;;;;10444429;28;20057;-85
2023/07/07 22:03:27;;;;;;;8.55;4.80;;;;;;;;;;10441795;28;20037;-85
2023/07/07 22:08:28;;;;;;;10.80;5.53;;;;;;;;;;10442914;28;20055;-86
2023/07/07 22:13:29;;;;;;;6.90;5.30;;;;;;;;;;10441472;28;20032;-86
2023/07/07 22:18:30;;;;;;;9.23;5.10;;;;;;;;;;10443346;28;20041;-86
2023/07/07 22:23:32;;;;;;;7.28;4.75;;;;;;;;;;10449629;28;20483;-86
2023/07/07 22:28:33;;;;;;;7.82;5.25;;;;;;;;;;10449349;28;20554;-87
2023/07/07 22:33:34;;;;;;;6.40;5.15;;;;;;;;;;10448248;28;20040;-86
2023/07/07 22:38:35;;;;;;;6.68;4.80;;;;;;;;;;10447003;28;20036;-86
2023/07/07 22:43:36;;;;;;;6.53;4.82;;;;;;;;;;10446605;28;20581;-86
2023/07/07 22:48:37;;;;;;;7.07;4.53;;;;;;;;;;10447936;28;20108;-86
2023/07/07 22:53:38;;;;;;;6.95;4.45;;;;;;;;;;10448461;28;20566;-83
2023/07/07 22:58:39;;;;;;;5.25;4.22;;;;;;;;;;10449235;28;20035;-81
2023/07/07 23:03:41;;;;;;;7.63;4.45;;;;;;;;;;10450349;28;20052;-82
2023/07/07 23:08:42;;;;;;;6.93;4.00;;;;;;;;;;10450537;28;20049;-82
2023/07/07 23:13:43;;;;;;;5.32;4.30;;;;;;;;;;10449345;28;20497;-82
2023/07/07 23:18:44;;;;;;;5.60;4.22;;;;;;;;;;10449425;28;20048;-83
2023/07/07 23:23:45;;;;;;;6.75;4.28;;;;;;;;;;10448720;28;20040;-82
2023/07/07 23:28:47;;;;;;;6.40;4.28;;;;;;;;;;10448859;28;20029;-83
2023/07/07 23:33:48;;;;;;;8.07;4.93;;;;;;;;;;10449165;28;20113;-82
2023/07/07 23:38:49;;;;;;;5.18;4.22;;;;;;;;;;10447155;28;20082;-82
2023/07/07 23:43:51;;;;;;;7.63;4.90;;;;;;;;;;10448544;28;20547;-83
2023/07/07 23:48:52;;;;;;;9.40;4.78;;;;;;;;;;10448565;28;20404;-83
2023/07/07 23:53:53;;;;;;;7.20;4.68;;;;;;;;;;10446625;28;20037;-82
2023/07/07 23:58:54;;;;;;;5.68;4.72;;;;;;;;;;10447052;28;20025;-82
